createdAt,value
2023-03-11T00:04:04.889Z,5.98
2023-03-11T00:09:08.012Z,7.32
2023-03-11T00:14:11.033Z,8.25
2023-03-11T00:19:14.373Z,8.20
2023-03-11T00:24:17.149Z,6.04
2023-03-11T00:29:20.005Z,6.74
2023-03-11T00:34:23.032Z,7.95
2023-03-11T00:39:26.534Z,8.51
2023-03-11T00:44:29.581Z,8.67
2023-03-11T00:49:34.943Z,6.53
2023-03-11T00:54:37.725Z,5.69
2023-03-11T00:59:40.472Z,7.32
2023-03-11T01:04:43.337Z,8.06
2023-03-11T01:09:46.148Z,8.47
2023-03-11T01:14:48.938Z,7.75
2023-03-11T01:19:52.033Z,6.20
2023-03-11T01:24:55.013Z,7.60
2023-03-11T01:29:59.203Z,8.33
2023-03-11T01:35:02.335Z,8.39
2023-03-11T01:40:09.269Z,6.26
2023-03-11T01:45:40.806Z,6.52
2023-03-11T01:50:46.917Z,7.62
2023-03-11T01:55:50.506Z,8.23
2023-03-11T02:00:55.262Z,6.63
2023-03-11T02:06:02.149Z,5.96
2023-03-11T02:11:08.156Z,7.54
2023-03-11T02:16:11.377Z,8.21
2023-03-11T02:21:22.290Z,7.92
2023-03-11T02:26:48.442Z,5.69
2023-03-11T02:31:51.567Z,5.28
2023-03-11T02:36:54.522Z,7.19
2023-03-11T02:41:58.733Z,8.25
2023-03-11T02:47:02.385Z,7.80
2023-03-11T02:52:05.872Z,5.63
2023-03-11T02:57:08.654Z,5.28
2023-03-11T03:02:11.480Z,7.24
2023-03-11T03:07:14.434Z,8.10
2023-03-11T03:12:17.140Z,6.84
2023-03-11T03:17:21.095Z,4.90
2023-03-11T03:22:27.537Z,6.13
2023-03-11T03:27:30.735Z,7.45
2023-03-11T03:32:33.644Z,7.86
2023-03-11T03:37:37.812Z,6.10
2023-03-11T03:42:41.764Z,4.99
2023-03-11T03:47:44.617Z,6.71
2023-03-11T03:52:47.499Z,7.63
2023-03-11T03:57:50.326Z,7.90
2023-03-11T04:02:53.104Z,5.92
2023-03-11T04:07:55.846Z,5.02
2023-03-11T04:12:58.764Z,6.74
2023-03-11T04:18:01.439Z,7.84
2023-03-11T04:23:04.547Z,7.54
2023-03-11T04:28:07.342Z,5.33
2023-03-11T04:33:10.097Z,4.92
2023-03-11T04:38:13.008Z,6.79
2023-03-11T04:43:16.037Z,7.68
2023-03-11T04:48:19.175Z,7.48
2023-03-11T04:53:22.409Z,5.29
2023-03-11T04:58:25.500Z,5.01
2023-03-11T05:03:28.318Z,6.84
2023-03-11T05:08:31.108Z,7.73
2023-03-11T05:13:33.912Z,6.96
2023-03-11T05:18:36.716Z,5.66
2023-03-11T05:23:39.491Z,7.15
2023-03-11T05:28:42.481Z,7.39
2023-03-11T05:33:45.281Z,5.15
2023-03-11T05:38:50.672Z,6.05
2023-03-11T05:43:53.411Z,7.42
2023-03-11T05:48:56.186Z,5.84
2023-03-11T05:53:59.050Z,4.89
2023-03-11T05:59:01.768Z,6.17
2023-03-11T06:04:04.740Z,7.30
2023-03-11T06:09:12.227Z,6.33
2023-03-11T06:14:15.151Z,5.35
2023-03-11T06:19:19.022Z,6.63
2023-03-11T06:24:22.223Z,6.34
2023-03-11T06:29:26.802Z,4.87
2023-03-11T06:34:30.176Z,5.96
2023-03-11T06:39:33.334Z,5.83
2023-03-11T06:44:36.617Z,4.50
2023-03-11T06:49:41.891Z,5.89
2023-03-11T06:54:45.054Z,6.16
2023-03-11T06:59:47.826Z,4.16
2023-03-11T07:04:51.342Z,4.85
2023-03-11T07:10:00.033Z,6.22
2023-03-11T07:15:03.989Z,6.10
2023-03-11T07:20:07.804Z,4.28
2023-03-11T07:25:10.702Z,5.54
2023-03-11T07:30:13.772Z,5.88
2023-03-11T07:35:16.925Z,4.31
2023-03-11T07:40:20.024Z,5.64
2023-03-11T07:45:23.606Z,6.57
2023-03-11T07:50:26.812Z,5.33
2023-03-11T07:55:29.920Z,5.44
2023-03-11T08:00:32.735Z,6.66
2023-03-11T08:05:35.791Z,5.08
2023-03-11T08:10:40.018Z,5.46
2023-03-11T08:15:44.258Z,6.67
2023-03-11T08:20:48.451Z,5.03
2023-03-11T08:25:51.407Z,5.94
2023-03-11T08:30:56.248Z,6.59
2023-03-11T08:36:00.076Z,4.67
2023-03-11T08:41:03.329Z,5.54
2023-03-11T08:46:07.457Z,6.37
2023-03-11T08:51:12.524Z,4.73
2023-03-11T08:56:15.390Z,5.67
2023-03-11T09:01:20.351Z,6.64
2023-03-11T09:06:25.650Z,5.05
2023-03-11T09:11:28.524Z,5.67
2023-03-11T09:16:31.431Z,6.35
2023-03-11T09:21:34.959Z,4.59
2023-03-11T09:26:37.819Z,5.68
2023-03-11T09:31:40.688Z,5.99
2023-03-11T09:36:46.752Z,4.59
2023-03-11T09:41:58.903Z,5.84
2023-03-11T09:47:23.888Z,5.84
2023-03-11T09:52:51.908Z,4.02
2023-03-11T09:57:57.869Z,5.57
2023-03-11T10:03:03.334Z,5.41
2023-03-11T10:08:34.448Z,4.47
2023-03-11T10:13:55.531Z,5.72
2023-03-11T10:19:22.882Z,5.32
2023-03-11T10:24:45.824Z,4.06
2023-03-11T10:30:10.040Z,5.68
2023-03-11T10:35:28.584Z,5.28
2023-03-11T10:40:41.769Z,4.54
2023-03-11T10:45:48.710Z,5.79
2023-03-11T10:50:57.990Z,4.48
2023-03-11T10:56:02.190Z,4.87
2023-03-11T11:01:16.934Z,5.62
2023-03-11T11:06:35.299Z,4.13
2023-03-11T11:11:39.737Z,5.43
2023-03-11T11:16:42.681Z,5.56
2023-03-11T11:21:50.836Z,4.28
2023-03-11T11:27:07.592Z,5.62
2023-03-11T11:32:20.752Z,5.24
2023-03-11T11:37:27.003Z,3.55
2023-03-11T11:42:31.375Z,4.63
2023-03-11T11:47:36.346Z,5.44
2023-03-11T11:52:52.772Z,4.42
2023-03-11T11:57:58.698Z,5.94
2023-03-11T12:03:16.505Z,5.09
2023-03-11T12:08:38.053Z,3.98
2023-03-11T12:13:50.969Z,5.13
2023-03-11T12:19:10.501Z,3.82
2023-03-11T12:24:28.721Z,4.37
2023-03-11T12:29:39.315Z,5.13
2023-03-11T12:34:43.200Z,3.55
2023-03-11T12:39:46.072Z,4.43
2023-03-11T12:44:50.353Z,4.62
2023-03-11T12:50:51.557Z,3.94
2023-03-11T12:56:10.189Z,4.81
2023-03-11T13:01:32.627Z,3.54
2023-03-11T13:06:53.304Z,5.04
2023-03-11T13:11:56.505Z,4.16
2023-03-11T13:17:26.657Z,4.00
2023-03-11T13:22:58.282Z,5.09
2023-03-11T13:28:38.369Z,3.88
2023-03-11T13:34:01.154Z,4.65
2023-03-11T13:39:28.273Z,4.76
2023-03-11T13:44:37.682Z,3.26
2023-03-11T13:49:47.840Z,4.10
2023-03-11T13:55:01.471Z,4.88
2023-03-11T14:00:29.325Z,3.70
2023-03-11T14:05:35.425Z,5.08
2023-03-11T14:10:39.036Z,4.45
2023-03-11T14:16:00.841Z,3.50
2023-03-11T14:21:06.736Z,4.36
2023-03-11T14:26:15.041Z,3.30
2023-03-11T14:31:33.965Z,2.69
2023-03-11T14:36:48.630Z,4.63
2023-03-11T14:42:00.888Z,3.90
2023-03-11T14:47:33.384Z,2.86
2023-03-11T14:52:50.925Z,4.60
2023-03-11T14:57:57.312Z,4.10
2023-03-11T15:03:15.072Z,3.21
2023-03-11T15:08:22.326Z,5.15
2023-03-11T15:13:25.439Z,4.43
2023-03-11T15:18:37.870Z,2.97
2023-03-11T15:23:49.952Z,4.21
2023-03-11T15:29:01.887Z,4.98
2023-03-11T15:34:16.963Z,3.36
2023-03-11T15:39:28.120Z,4.56
2023-03-11T15:44:41.004Z,3.61
2023-03-11T15:49:46.612Z,3.49
2023-03-11T15:54:55.703Z,4.46
2023-03-11T16:00:01.216Z,3.05
2023-03-11T16:05:14.326Z,3.70
2023-03-11T16:10:21.525Z,4.13
2023-03-11T16:15:26.289Z,2.64
2023-03-11T16:20:42.373Z,3.61
2023-03-11T16:25:46.677Z,3.90
2023-03-11T16:30:50.713Z,2.41
2023-03-11T16:35:54.463Z,3.30
2023-03-11T16:41:02.898Z,4.53
2023-03-11T16:46:07.244Z,2.98
2023-03-11T16:51:10.880Z,1.80
2023-03-11T16:56:13.949Z,2.64
2023-03-11T17:01:18.137Z,4.49
2023-03-11T17:06:21.784Z,2.97
2023-03-11T17:11:28.687Z,2.26
2023-03-11T17:16:35.417Z,3.97
2023-03-11T17:21:38.361Z,3.07
2023-03-11T17:26:42.507Z,2.31
2023-03-11T17:31:45.808Z,4.26
2023-03-11T17:36:50.240Z,4.07
2023-03-11T17:41:53.194Z,2.33
2023-03-11T17:46:55.985Z,1.80
2023-03-11T17:51:58.828Z,3.80
2023-03-11T17:57:01.639Z,3.11
2023-03-11T18:02:04.586Z,1.60
2023-03-11T18:07:08.473Z,1.43
2023-03-11T18:12:11.348Z,3.43
2023-03-11T18:17:14.125Z,2.20
2023-03-11T18:22:16.980Z,0.97
2023-03-11T18:27:19.843Z,1.72
2023-03-11T18:32:24.922Z,3.23
2023-03-11T18:37:27.921Z,1.77
2023-03-11T18:42:32.671Z,0.92
2023-03-11T18:47:35.618Z,2.65
2023-03-11T18:52:38.638Z,3.63
2023-03-11T18:57:43.242Z,2.06
2023-03-11T19:02:50.654Z,1.03
2023-03-11T19:07:54.958Z,0.39
2023-03-11T19:12:57.754Z,1.20
2023-03-11T19:18:07.000Z,3.45
2023-03-11T19:23:11.789Z,2.36
2023-03-11T19:28:15.097Z,0.97
2023-03-11T19:33:20.014Z,0.38
2023-03-11T19:38:23.837Z,2.54
2023-03-11T19:43:28.270Z,2.78
2023-03-11T19:48:31.755Z,0.99
2023-03-11T19:53:36.862Z,0.69
2023-03-11T19:58:42.465Z,2.97
2023-03-11T20:03:45.978Z,2.84
2023-03-11T20:08:50.272Z,1.04
2023-03-11T20:13:53.288Z,1.02
2023-03-11T20:18:56.211Z,2.68
2023-03-11T20:23:59.349Z,1.34
2023-03-11T20:29:04.656Z,0.86
2023-03-11T20:34:07.558Z,3.10
2023-03-11T20:39:11.992Z,2.34
2023-03-11T20:44:19.392Z,0.65
2023-03-11T20:49:25.857Z,0.68
2023-03-11T20:54:29.587Z,2.95
2023-03-11T20:59:32.563Z,1.93
2023-03-11T21:04:36.199Z,0.32
2023-03-11T21:09:39.263Z,0.98
2023-03-11T21:14:44.440Z,3.22
2023-03-11T21:19:48.438Z,2.55
2023-03-11T21:24:55.497Z,0.64
2023-03-11T21:29:59.412Z,0.86
2023-03-11T21:35:02.494Z,3.13
2023-03-11T21:40:07.572Z,3.12
2023-03-11T21:45:11.306Z,1.01
2023-03-11T21:50:14.308Z,1.73
2023-03-11T21:55:19.781Z,3.59
2023-03-11T22:00:22.963Z,2.42
2023-03-11T22:05:26.565Z,0.56
2023-03-11T22:10:31.372Z,1.99
2023-03-11T22:15:34.752Z,3.52
2023-03-11T22:20:41.100Z,1.78
2023-03-11T22:25:47.005Z,0.11
2023-03-11T22:30:50.492Z,1.01
2023-03-11T22:35:55.450Z,3.12
2023-03-11T22:41:00.499Z,3.28
2023-03-11T22:46:05.429Z,1.12
2023-03-11T22:51:09.094Z,0.02
2023-03-11T22:56:15.220Z,1.82
2023-03-11T23:01:18.499Z,3.45
2023-03-11T23:06:22.436Z,1.93
2023-03-11T23:11:25.807Z,0.21
2023-03-11T23:16:32.255Z,0.22
2023-03-11T23:21:35.638Z,2.68
2023-03-11T23:26:38.600Z,3.98
2023-03-11T23:31:41.441Z,2.59
2023-03-11T23:36:44.348Z,1.18
2023-03-11T23:41:47.134Z,2.89
2023-03-11T23:46:50.108Z,4.01
2023-03-11T23:51:53.833Z,2.26
2023-03-11T23:56:56.712Z,1.19
